sensor_id;sensor_type;location;lat;lon;timestamp;pressure;altitude;pressure_sealevel;temperature;humidity
64544;BME280;50936;51.660;5.616;2023-02-22T00:01:42;101180.34;;;5.84;100.00
64544;BME280;50936;51.660;5.616;2023-02-22T00:04:36;101184.59;;;5.90;100.00
64544;BME280;50936;51.660;5.616;2023-02-22T00:07:06;101178.84;;;5.99;100.00
64544;BME280;50936;51.660;5.616;2023-02-22T00:09:34;101174.97;;;6.06;100.00
64544;BME280;50936;51.660;5.616;2023-02-22T00:12:01;101177.47;;;6.09;100.00
64544;BME280;50936;51.660;5.616;2023-02-22T00:14:28;101178.56;;;6.05;100.00
64544;BME280;50936;51.660;5.616;2023-02-22T00:16:55;101180.38;;;6.05;100.00
64544;BME280;50936;51.660;5.616;2023-02-22T00:19:25;101184.34;;;5.96;100.00
64544;BME280;50936;51.660;5.616;2023-02-22T00:21:53;101182.84;;;5.89;100.00
64544;BME280;50936;51.660;5.616;2023-02-22T00:24:20;101182.97;;;5.86;100.00
64544;BME280;50936;51.660;5.616;2023-02-22T00:26:51;101178.97;;;5.96;100.00
64544;BME280;50936;51.660;5.616;2023-02-22T00:29:23;101178.69;;;6.02;100.00
64544;BME280;50936;51.660;5.616;2023-02-22T00:31:51;101175.94;;;6.04;100.00
64544;BME280;50936;51.660;5.616;2023-02-22T00:34:20;101185.25;;;5.95;100.00
64544;BME280;50936;51.660;5.616;2023-02-22T00:36:49;101190.09;;;5.87;100.00
64544;BME280;50936;51.660;5.616;2023-02-22T00:39:16;101189.22;;;5.86;100.00
64544;BME280;50936;51.660;5.616;2023-02-22T00:41:43;101174.75;;;5.90;100.00
64544;BME280;50936;51.660;5.616;2023-02-22T00:44:11;101175.72;;;5.88;100.00
64544;BME280;50936;51.660;5.616;2023-02-22T00:46:38;101169.72;;;5.83;100.00
64544;BME280;50936;51.660;5.616;2023-02-22T00:49:05;101177.59;;;5.86;100.00
64544;BME280;50936;51.660;5.616;2023-02-22T00:51:32;101178.81;;;5.78;100.00
64544;BME280;50936;51.660;5.616;2023-02-22T00:53:59;101170.94;;;5.75;100.00
64544;BME280;50936;51.660;5.616;2023-02-22T00:56:26;101165.88;;;5.68;100.00
64544;BME280;50936;51.660;5.616;2023-02-22T00:58:53;101156.97;;;5.67;100.00
64544;BME280;50936;51.660;5.616;2023-02-22T01:01:20;101164.50;;;5.59;100.00
64544;BME280;50936;51.660;5.616;2023-02-22T01:03:49;101154.03;;;5.53;100.00
64544;BME280;50936;51.660;5.616;2023-02-22T01:06:16;101161.03;;;5.57;100.00
64544;BME280;50936;51.660;5.616;2023-02-22T01:08:44;101156.47;;;5.59;100.00
64544;BME280;50936;51.660;5.616;2023-02-22T01:11:13;101158.41;;;5.55;100.00
64544;BME280;50936;51.660;5.616;2023-02-22T01:13:42;101153.16;;;5.52;100.00
64544;BME280;50936;51.660;5.616;2023-02-22T01:16:12;101150.56;;;5.51;100.00
64544;BME280;50936;51.660;5.616;2023-02-22T01:18:40;101161.03;;;5.57;100.00
64544;BME280;50936;51.660;5.616;2023-02-22T01:21:07;101152.66;;;5.65;100.00
64544;BME280;50936;51.660;5.616;2023-02-22T01:23:34;101151.63;;;5.67;100.00
64544;BME280;50936;51.660;5.616;2023-02-22T01:26:03;101150.63;;;5.70;100.00
64544;BME280;50936;51.660;5.616;2023-02-22T01:28:32;101144.25;;;5.72;100.00
64544;BME280;50936;51.660;5.616;2023-02-22T01:31:00;101146.66;;;5.58;100.00
64544;BME280;50936;51.660;5.616;2023-02-22T01:33:29;101134.06;;;5.60;100.00
64544;BME280;50936;51.660;5.616;2023-02-22T01:35:57;101139.44;;;5.60;100.00
64544;BME280;50936;51.660;5.616;2023-02-22T01:38:26;101127.72;;;5.63;100.00
64544;BME280;50936;51.660;5.616;2023-02-22T01:40:53;101125.22;;;5.58;100.00
64544;BME280;50936;51.660;5.616;2023-02-22T01:43:26;101126.44;;;5.51;100.00
64544;BME280;50936;51.660;5.616;2023-02-22T01:49:02;101124.44;;;5.35;100.00
64544;BME280;50936;51.660;5.616;2023-02-22T01:51:35;101127.81;;;5.40;100.00
64544;BME280;50936;51.660;5.616;2023-02-22T01:54:13;101122.69;;;5.34;100.00
64544;BME280;50936;51.660;5.616;2023-02-22T01:56:51;101123.75;;;5.30;100.00
64544;BME280;50936;51.660;5.616;2023-02-22T01:59:28;101115.06;;;5.25;100.00
64544;BME280;50936;51.660;5.616;2023-02-22T02:01:58;101119.34;;;5.29;100.00
64544;BME280;50936;51.660;5.616;2023-02-22T02:04:26;101115.66;;;5.32;100.00
64544;BME280;50936;51.660;5.616;2023-02-22T02:07:05;101121.88;;;5.32;100.00
64544;BME280;50936;51.660;5.616;2023-02-22T02:09:49;101120.41;;;5.25;100.00
64544;BME280;50936;51.660;5.616;2023-02-22T02:12:23;101116.31;;;5.16;100.00
64544;BME280;50936;51.660;5.616;2023-02-22T02:14:52;101104.19;;;5.08;100.00
64544;BME280;50936;51.660;5.616;2023-02-22T02:17:21;101104.72;;;4.95;100.00
64544;BME280;50936;51.660;5.616;2023-02-22T02:20:07;101095.13;;;4.90;100.00
64544;BME280;50936;51.660;5.616;2023-02-22T02:22:53;101097.88;;;4.88;100.00
64544;BME280;50936;51.660;5.616;2023-02-22T02:25:50;101093.94;;;4.97;100.00
64544;BME280;50936;51.660;5.616;2023-02-22T02:34:18;101084.22;;;4.94;100.00
64544;BME280;50936;51.660;5.616;2023-02-22T02:37:11;101074.34;;;4.96;100.00
64544;BME280;50936;51.660;5.616;2023-02-22T02:48:45;101062.16;;;4.89;100.00
64544;BME280;50936;51.660;5.616;2023-02-22T02:51:23;101053.56;;;4.81;100.00
64544;BME280;50936;51.660;5.616;2023-02-22T02:53:58;101058.16;;;4.77;100.00
64544;BME280;50936;51.660;5.616;2023-02-22T02:56:27;101057.59;;;4.71;100.00
64544;BME280;50936;51.660;5.616;2023-02-22T02:58:54;101058.50;;;4.70;100.00
64544;BME280;50936;51.660;5.616;2023-02-22T03:21:48;101047.59;;;4.74;100.00
64544;BME280;50936;51.660;5.616;2023-02-22T03:24:29;101051.59;;;4.64;100.00
64544;BME280;50936;51.660;5.616;2023-02-22T03:27:05;101049.25;;;4.56;100.00
64544;BME280;50936;51.660;5.616;2023-02-22T03:29:46;101040.53;;;4.51;100.00
64544;BME280;50936;51.660;5.616;2023-02-22T03:32:21;101035.19;;;4.51;100.00
64544;BME280;50936;51.660;5.616;2023-02-22T03:35:07;101037.81;;;4.53;100.00
64544;BME280;50936;51.660;5.616;2023-02-22T03:37:44;101034.25;;;4.52;100.00
64544;BME280;50936;51.660;5.616;2023-02-22T03:40:21;101034.00;;;4.58;100.00
64544;BME280;50936;51.660;5.616;2023-02-22T03:43:02;101029.06;;;4.70;100.00
64544;BME280;50936;51.660;5.616;2023-02-22T03:45:39;101033.50;;;4.71;100.00
64544;BME280;50936;51.660;5.616;2023-02-22T03:48:40;101024.00;;;4.63;100.00
64544;BME280;50936;51.660;5.616;2023-02-22T03:51:13;101021.38;;;4.62;100.00
64544;BME280;50936;51.660;5.616;2023-02-22T03:53:47;101020.34;;;4.65;100.00
64544;BME280;50936;51.660;5.616;2023-02-22T03:56:21;101019.44;;;4.66;100.00
64544;BME280;50936;51.660;5.616;2023-02-22T03:58:54;101019.50;;;4.64;100.00
64544;BME280;50936;51.660;5.616;2023-02-22T04:01:21;101010.66;;;4.62;100.00
64544;BME280;50936;51.660;5.616;2023-02-22T04:03:49;101015.28;;;4.58;100.00
64544;BME280;50936;51.660;5.616;2023-02-22T04:06:16;101017.00;;;4.59;100.00
64544;BME280;50936;51.660;5.616;2023-02-22T04:08:43;101011.91;;;4.53;100.00
64544;BME280;50936;51.660;5.616;2023-02-22T04:11:10;101008.44;;;4.51;100.00
64544;BME280;50936;51.660;5.616;2023-02-22T04:13:39;101008.31;;;4.54;100.00
64544;BME280;50936;51.660;5.616;2023-02-22T04:16:06;100998.38;;;4.58;100.00
64544;BME280;50936;51.660;5.616;2023-02-22T04:18:34;100999.06;;;4.61;100.00
64544;BME280;50936;51.660;5.616;2023-02-22T04:21:02;100993.88;;;4.58;100.00
64544;BME280;50936;51.660;5.616;2023-02-22T04:23:34;100989.59;;;4.54;100.00
64544;BME280;50936;51.660;5.616;2023-02-22T04:26:01;100979.06;;;4.50;100.00
64544;BME280;50936;51.660;5.616;2023-02-22T04:28:29;100973.78;;;4.48;100.00
64544;BME280;50936;51.660;5.616;2023-02-22T04:31:12;100968.81;;;4.39;100.00
64544;BME280;50936;51.660;5.616;2023-02-22T04:33:39;100964.44;;;4.38;100.00
64544;BME280;50936;51.660;5.616;2023-02-22T04:36:09;100961.81;;;4.36;100.00
64544;BME280;50936;51.660;5.616;2023-02-22T04:38:36;100950.22;;;4.36;100.00
64544;BME280;50936;51.660;5.616;2023-02-22T04:41:03;100952.25;;;4.31;100.00
64544;BME280;50936;51.660;5.616;2023-02-22T04:43:31;100947.88;;;4.28;100.00
64544;BME280;50936;51.660;5.616;2023-02-22T04:46:09;100959.59;;;4.26;100.00
64544;BME280;50936;51.660;5.616;2023-02-22T04:48:37;100949.00;;;4.22;100.00
64544;BME280;50936;51.660;5.616;2023-02-22T04:51:04;100952.38;;;4.28;100.00
64544;BME280;50936;51.660;5.616;2023-02-22T04:53:31;100953.09;;;4.31;100.00
64544;BME280;50936;51.660;5.616;2023-02-22T04:55:59;100958.94;;;4.41;100.00
64544;BME280;50936;51.660;5.616;2023-02-22T04:58:26;100950.09;;;4.39;100.00
64544;BME280;50936;51.660;5.616;2023-02-22T05:00:53;100948.13;;;4.44;100.00
64544;BME280;50936;51.660;5.616;2023-02-22T05:03:20;100949.72;;;4.48;100.00
64544;BME280;50936;51.660;5.616;2023-02-22T05:05:46;100948.22;;;4.41;100.00
64544;BME280;50936;51.660;5.616;2023-02-22T05:08:13;100941.28;;;4.37;100.00
64544;BME280;50936;51.660;5.616;2023-02-22T05:10:40;100948.50;;;4.35;100.00
64544;BME280;50936;51.660;5.616;2023-02-22T05:13:07;100944.06;;;4.34;100.00
64544;BME280;50936;51.660;5.616;2023-02-22T05:15:34;100948.56;;;4.33;100.00
64544;BME280;50936;51.660;5.616;2023-02-22T05:18:01;100935.53;;;4.46;100.00
64544;BME280;50936;51.660;5.616;2023-02-22T05:20:31;100929.78;;;4.55;100.00
64544;BME280;50936;51.660;5.616;2023-02-22T05:23:01;100945.03;;;4.53;100.00
64544;BME280;50936;51.660;5.616;2023-02-22T05:25:28;100944.91;;;4.56;100.00
64544;BME280;50936;51.660;5.616;2023-02-22T05:27:58;100940.38;;;4.58;100.00
64544;BME280;50936;51.660;5.616;2023-02-22T05:30:30;100930.41;;;4.62;100.00
64544;BME280;50936;51.660;5.616;2023-02-22T05:32:59;100933.03;;;4.63;100.00
64544;BME280;50936;51.660;5.616;2023-02-22T05:35:27;100927.78;;;4.60;100.00
64544;BME280;50936;51.660;5.616;2023-02-22T05:37:55;100927.91;;;4.57;100.00
64544;BME280;50936;51.660;5.616;2023-02-22T05:40:24;100927.91;;;4.57;100.00
64544;BME280;50936;51.660;5.616;2023-02-22T05:42:53;100925.81;;;4.66;100.00
64544;BME280;50936;51.660;5.616;2023-02-22T05:45:22;100923.91;;;4.68;100.00
64544;BME280;50936;51.660;5.616;2023-02-22T05:47:51;100918.28;;;4.74;100.00
64544;BME280;50936;51.660;5.616;2023-02-22T05:50:19;100915.44;;;4.78;100.00
64544;BME280;50936;51.660;5.616;2023-02-22T05:52:47;100920.72;;;4.80;100.00
64544;BME280;50936;51.660;5.616;2023-02-22T05:55:17;100913.47;;;4.82;100.00
64544;BME280;50936;51.660;5.616;2023-02-22T05:57:46;100910.19;;;4.75;100.00
64544;BME280;50936;51.660;5.616;2023-02-22T06:00:16;100904.00;;;4.75;100.00
64544;BME280;50936;51.660;5.616;2023-02-22T06:02:45;100903.19;;;4.73;100.00
64544;BME280;50936;51.660;5.616;2023-02-22T06:05:12;100905.13;;;4.69;100.00
64544;BME280;50936;51.660;5.616;2023-02-22T06:07:39;100894.50;;;4.68;100.00
64544;BME280;50936;51.660;5.616;2023-02-22T06:10:06;100890.81;;;4.70;100.00
64544;BME280;50936;51.660;5.616;2023-02-22T06:12:33;100881.84;;;4.71;100.00
64544;BME280;50936;51.660;5.616;2023-02-22T06:15:00;100878.94;;;4.76;100.00
64544;BME280;50936;51.660;5.616;2023-02-22T06:17:27;100886.84;;;4.79;100.00
64544;BME280;50936;51.660;5.616;2023-02-22T06:19:53;100878.53;;;4.85;100.00
64544;BME280;50936;51.660;5.616;2023-02-22T06:22:20;100880.41;;;4.83;100.00
64544;BME280;50936;51.660;5.616;2023-02-22T06:24:47;100877.06;;;4.78;100.00
64544;BME280;50936;51.660;5.616;2023-02-22T06:27:14;100873.47;;;4.79;100.00
64544;BME280;50936;51.660;5.616;2023-02-22T06:29:44;100876.03;;;4.82;100.00
64544;BME280;50936;51.660;5.616;2023-02-22T06:32:12;100871.59;;;4.81;100.00
64544;BME280;50936;51.660;5.616;2023-02-22T06:34:40;100859.28;;;4.77;100.00
64544;BME280;50936;51.660;5.616;2023-02-22T06:37:07;100862.25;;;4.71;100.00
64544;BME280;50936;51.660;5.616;2023-02-22T06:39:34;100858.75;;;4.69;100.00
64544;BME280;50936;51.660;5.616;2023-02-22T06:42:00;100856.00;;;4.70;100.00
64544;BME280;50936;51.660;5.616;2023-02-22T06:44:27;100847.88;;;4.73;100.00
64544;BME280;50936;51.660;5.616;2023-02-22T06:46:54;100850.47;;;4.75;100.00
64544;BME280;50936;51.660;5.616;2023-02-22T06:49:21;100845.13;;;4.75;100.00
64544;BME280;50936;51.660;5.616;2023-02-22T06:51:48;100856.81;;;4.72;100.00
64544;BME280;50936;51.660;5.616;2023-02-22T06:54:16;100856.97;;;4.69;100.00
64544;BME280;50936;51.660;5.616;2023-02-22T06:56:43;100855.28;;;4.67;100.00
64544;BME280;50936;51.660;5.616;2023-02-22T06:59:10;100853.50;;;4.67;100.00
64544;BME280;50936;51.660;5.616;2023-02-22T07:01:40;100857.91;;;4.68;100.00
64544;BME280;50936;51.660;5.616;2023-02-22T07:04:07;100855.09;;;4.71;100.00
64544;BME280;50936;51.660;5.616;2023-02-22T07:06:34;100855.28;;;4.67;100.00
64544;BME280;50936;51.660;5.616;2023-02-22T07:09:02;100858.84;;;4.67;100.00
64544;BME280;50936;51.660;5.616;2023-02-22T07:11:29;100865.19;;;4.65;100.00
64544;BME280;50936;51.660;5.616;2023-02-22T07:13:56;100861.59;;;4.66;100.00
64544;BME280;50936;51.660;5.616;2023-02-22T07:16:23;100870.28;;;4.71;100.00
64544;BME280;50936;51.660;5.616;2023-02-22T07:18:49;100871.88;;;4.75;100.00
64544;BME280;50936;51.660;5.616;2023-02-22T07:21:16;100875.22;;;4.80;100.00
64544;BME280;50936;51.660;5.616;2023-02-22T07:23:53;100874.34;;;4.79;100.00
64544;BME280;50936;51.660;5.616;2023-02-22T07:26:22;100882.38;;;4.79;100.00
64544;BME280;50936;51.660;5.616;2023-02-22T07:28:49;100880.56;;;4.80;100.00
64544;BME280;50936;51.660;5.616;2023-02-22T07:31:16;100878.53;;;4.85;100.00
64544;BME280;50936;51.660;5.616;2023-02-22T07:33:46;100879.22;;;4.90;100.00
64544;BME280;50936;51.660;5.616;2023-02-22T07:36:14;100881.75;;;4.93;100.00
64544;BME280;50936;51.660;5.616;2023-02-22T07:38:43;100884.50;;;4.92;100.00
64544;BME280;50936;51.660;5.616;2023-02-22T07:41:11;100893.44;;;4.91;100.00
64544;BME280;50936;51.660;5.616;2023-02-22T07:43:38;100891.78;;;4.88;100.00
64544;BME280;50936;51.660;5.616;2023-02-22T07:46:05;100882.91;;;4.88;100.00
64544;BME280;50936;51.660;5.616;2023-02-22T07:48:32;100883.63;;;4.91;100.00
64544;BME280;50936;51.660;5.616;2023-02-22T07:50:59;100886.03;;;4.97;100.00
64544;BME280;50936;51.660;5.616;2023-02-22T07:53:28;100884.81;;;5.05;100.00
64544;BME280;50936;51.660;5.616;2023-02-22T07:55:58;100891.75;;;5.09;100.00
64544;BME280;50936;51.660;5.616;2023-02-22T07:58:28;100887.97;;;5.13;100.00
64544;BME280;50936;51.660;5.616;2023-02-22T08:00:57;100891.47;;;5.15;100.00
64544;BME280;50936;51.660;5.616;2023-02-22T08:03:25;100889.72;;;5.14;100.00
64544;BME280;50936;51.660;5.616;2023-02-22T08:05:54;100893.81;;;5.23;100.00
64544;BME280;50936;51.660;5.616;2023-02-22T08:08:22;100910.31;;;5.32;100.00
64544;BME280;50936;51.660;5.616;2023-02-22T08:10:49;100900.38;;;5.34;100.00
64544;BME280;50936;51.660;5.616;2023-02-22T08:13:18;100893.31;;;5.33;100.00
64544;BME280;50936;51.660;5.616;2023-02-22T08:15:45;100904.94;;;5.32;100.00
64544;BME280;50936;51.660;5.616;2023-02-22T08:18:17;100895.97;;;5.33;100.00
64544;BME280;50936;51.660;5.616;2023-02-22T08:20:47;100902.63;;;5.44;100.00
64544;BME280;50936;51.660;5.616;2023-02-22T08:23:17;100890.19;;;5.43;100.00
64544;BME280;50936;51.660;5.616;2023-02-22T08:25:45;100899.88;;;5.45;100.00
64544;BME280;50936;51.660;5.616;2023-02-22T08:28:14;100896.69;;;5.56;100.00
64544;BME280;50936;51.660;5.616;2023-02-22T08:30:43;100897.28;;;5.63;100.00
64544;BME280;50936;51.660;5.616;2023-02-22T08:33:12;100894.66;;;5.61;100.00
64544;BME280;50936;51.660;5.616;2023-02-22T08:35:42;100899.31;;;5.57;100.00
64544;BME280;50936;51.660;5.616;2023-02-22T08:38:22;100873.38;;;5.58;100.00
64544;BME280;50936;51.660;5.616;2023-02-22T08:40:51;100871.66;;;5.57;100.00
64544;BME280;50936;51.660;5.616;2023-02-22T08:43:19;100873.25;;;5.61;100.00
64544;BME280;50936;51.660;5.616;2023-02-22T08:45:48;100869.47;;;5.65;100.00
64544;BME280;50936;51.660;5.616;2023-02-22T08:48:16;100860.31;;;5.69;100.00
64544;BME280;50936;51.660;5.616;2023-02-22T08:50:43;100862.94;;;5.71;100.00
64544;BME280;50936;51.660;5.616;2023-02-22T08:53:12;100868.88;;;5.77;100.00
64544;BME280;50936;51.660;5.616;2023-02-22T08:55:40;100863.19;;;5.84;100.00
64544;BME280;50936;51.660;5.616;2023-02-22T08:58:08;100866.66;;;5.86;100.00
64544;BME280;50936;51.660;5.616;2023-02-22T09:00:36;100869.06;;;5.92;100.00
64544;BME280;50936;51.660;5.616;2023-02-22T09:03:07;100871.31;;;6.01;100.00
64544;BME280;50936;51.660;5.616;2023-02-22T09:05:37;100875.44;;;6.08;100.00
64544;BME280;50936;51.660;5.616;2023-02-22T09:08:04;100867.06;;;6.14;100.00
64544;BME280;50936;51.660;5.616;2023-02-22T09:10:33;100869.28;;;6.24;100.00
64544;BME280;50936;51.660;5.616;2023-02-22T09:13:01;100860.03;;;6.29;100.00
64544;BME280;50936;51.660;5.616;2023-02-22T09:15:30;100857.13;;;6.34;100.00
64544;BME280;50936;51.660;5.616;2023-02-22T09:17:58;100847.66;;;6.44;100.00
64544;BME280;50936;51.660;5.616;2023-02-22T09:20:26;100849.91;;;6.52;100.00
64544;BME280;50936;51.660;5.616;2023-02-22T09:22:54;100850.31;;;6.62;100.00
64544;BME280;50936;51.660;5.616;2023-02-22T09:25:22;100857.09;;;6.69;100.00
64544;BME280;50936;51.660;5.616;2023-02-22T09:27:53;100855.34;;;6.68;100.00
64544;BME280;50936;51.660;5.616;2023-02-22T09:33:00;100847.78;;;6.76;100.00
64544;BME280;50936;51.660;5.616;2023-02-22T09:35:32;100840.66;;;6.75;100.00
64544;BME280;50936;51.660;5.616;2023-02-22T09:38:03;100842.41;;;6.76;100.00
64544;BME280;50936;51.660;5.616;2023-02-22T09:40:36;100835.84;;;6.82;100.00
64544;BME280;50936;51.660;5.616;2023-02-22T09:49:02;100837.53;;;7.16;100.00
64544;BME280;50936;51.660;5.616;2023-02-22T09:51:53;100832.25;;;7.30;100.00
64544;BME280;50936;51.660;5.616;2023-02-22T09:54:44;100833.50;;;7.41;100.00
64544;BME280;50936;51.660;5.616;2023-02-22T09:57:22;100822.22;;;7.50;100.00
64544;BME280;50936;51.660;5.616;2023-02-22T10:02:53;100822.22;;;7.66;100.00
64544;BME280;50936;51.660;5.616;2023-02-22T10:05:36;100819.00;;;7.75;100.00
64544;BME280;50936;51.660;5.616;2023-02-22T10:08:12;100813.16;;;7.83;100.00
64544;BME280;50936;51.660;5.616;2023-02-22T10:10:43;100807.41;;;7.89;100.00
64544;BME280;50936;51.660;5.616;2023-02-22T10:27:27;100801.09;;;8.79;100.00
64544;BME280;50936;51.660;5.616;2023-02-22T10:30:04;100811.47;;;9.00;100.00
64544;BME280;50936;51.660;5.616;2023-02-22T10:32:58;100805.50;;;9.23;100.00
64544;BME280;50936;51.660;5.616;2023-02-22T10:35:36;100808.31;;;9.49;100.00
64544;BME280;50936;51.660;5.616;2023-02-22T10:41:31;100800.53;;;10.12;100.00
64544;BME280;50936;51.660;5.616;2023-02-22T10:43:46;100805.25;;;10.35;100.00
64544;BME280;50936;51.660;5.616;2023-02-22T10:46:16;100808.38;;;10.42;100.00
64544;BME280;50936;51.660;5.616;2023-02-22T10:48:53;100810.13;;;10.56;100.00
64544;BME280;50936;51.660;5.616;2023-02-22T10:51:28;100803.63;;;10.71;100.00
64544;BME280;50936;51.660;5.616;2023-02-22T10:56:49;100805.16;;;10.88;100.00
64544;BME280;50936;51.660;5.616;2023-02-22T10:59:30;100810.00;;;10.96;100.00
64544;BME280;50936;51.660;5.616;2023-02-22T11:05:00;100816.63;;;10.79;100.00
64544;BME280;50936;51.660;5.616;2023-02-22T11:07:34;100815.09;;;10.88;100.00
64544;BME280;50936;51.660;5.616;2023-02-22T11:10:07;100812.50;;;10.99;100.00
64544;BME280;50936;51.660;5.616;2023-02-22T11:12:39;100815.19;;;11.12;100.00
64544;BME280;50936;51.660;5.616;2023-02-22T11:17:50;100818.53;;;11.15;100.00
64544;BME280;50936;51.660;5.616;2023-02-22T11:22:57;100813.75;;;11.19;100.00
64544;BME280;50936;51.660;5.616;2023-02-22T11:25:31;100812.88;;;11.18;100.00
64544;BME280;50936;51.660;5.616;2023-02-22T11:28:09;100812.22;;;11.28;100.00
64544;BME280;50936;51.660;5.616;2023-02-22T11:30:41;100803.50;;;11.48;100.00
64544;BME280;50936;51.660;5.616;2023-02-22T11:35:56;100792.03;;;11.58;100.00
64544;BME280;50936;51.660;5.616;2023-02-22T11:38:31;100789.06;;;11.61;100.00
64544;BME280;50936;51.660;5.616;2023-02-22T11:41:20;100788.28;;;11.71;100.00
64544;BME280;50936;51.660;5.616;2023-02-22T11:43:53;100782.84;;;11.71;100.00
64544;BME280;50936;51.660;5.616;2023-02-22T11:46:25;100784.66;;;11.60;100.00
64544;BME280;50936;51.660;5.616;2023-02-22T11:52:04;100770.22;;;11.35;100.00
64544;BME280;50936;51.660;5.616;2023-02-22T11:54:57;100761.94;;;11.25;100.00
64544;BME280;50936;51.660;5.616;2023-02-22T11:57:46;100753.72;;;11.27;100.00
64544;BME280;50936;51.660;5.616;2023-02-22T12:00:28;100756.97;;;11.32;100.00
64544;BME280;50936;51.660;5.616;2023-02-22T12:09:08;100743.34;;;11.58;100.00
64544;BME280;50936;51.660;5.616;2023-02-22T12:18:06;100739.94;;;11.67;100.00
64544;BME280;50936;51.660;5.616;2023-02-22T12:20:53;100735.28;;;11.69;100.00
64544;BME280;50936;51.660;5.616;2023-02-22T12:23:59;100736.34;;;11.66;100.00
64544;BME280;50936;51.660;5.616;2023-02-22T12:26:40;100728.13;;;11.68;100.00
64544;BME280;50936;51.660;5.616;2023-02-22T12:35:52;100726.41;;;11.67;100.00
64544;BME280;50936;51.660;5.616;2023-02-22T12:38:33;100729.22;;;11.65;100.00
64544;BME280;50936;51.660;5.616;2023-02-22T12:44:08;100728.81;;;11.59;100.00
64544;BME280;50936;51.660;5.616;2023-02-22T12:46:47;100725.47;;;11.55;100.00
64544;BME280;50936;51.660;5.616;2023-02-22T12:49:47;100733.97;;;11.50;100.00
64544;BME280;50936;51.660;5.616;2023-02-22T12:52:31;100728.13;;;11.44;100.00
64544;BME280;50936;51.660;5.616;2023-02-22T12:55:25;100726.53;;;11.41;100.00
64544;BME280;50936;51.660;5.616;2023-02-22T12:58:26;100723.94;;;11.40;100.00
64544;BME280;50936;51.660;5.616;2023-02-22T13:01:04;100717.91;;;11.36;100.00
64544;BME280;50936;51.660;5.616;2023-02-22T13:03:40;100720.13;;;11.42;100.00
64544;BME280;50936;51.660;5.616;2023-02-22T13:06:41;100722.63;;;11.45;100.00
64544;BME280;50936;51.660;5.616;2023-02-22T13:12:38;100729.09;;;11.43;100.00
64544;BME280;50936;51.660;5.616;2023-02-22T13:18:10;100735.97;;;11.23;100.00
64544;BME280;50936;51.660;5.616;2023-02-22T13:21:18;100741.31;;;11.11;100.00
64544;BME280;50936;51.660;5.616;2023-02-22T13:24:01;100735.09;;;10.98;100.00
64544;BME280;50936;51.660;5.616;2023-02-22T13:27:18;100734.81;;;10.90;100.00
64544;BME280;50936;51.660;5.616;2023-02-22T13:29:57;100738.16;;;10.81;100.00
64544;BME280;50936;51.660;5.616;2023-02-22T13:32:36;100732.75;;;10.68;100.00
64544;BME280;50936;51.660;5.616;2023-02-22T13:52:37;100732.75;;;10.29;100.00
64544;BME280;50936;51.660;5.616;2023-02-22T13:55:14;100732.56;;;10.32;100.00
64544;BME280;50936;51.660;5.616;2023-02-22T13:57:47;100735.06;;;10.35;100.00
64544;BME280;50936;51.660;5.616;2023-02-22T14:00:19;100732.13;;;10.38;100.00
64544;BME280;50936;51.660;5.616;2023-02-22T14:05:48;100730.22;;;10.40;100.00
64544;BME280;50936;51.660;5.616;2023-02-22T14:13:32;100738.63;;;10.49;100.00
64544;BME280;50936;51.660;5.616;2023-02-22T14:16:28;100735.06;;;10.48;100.00
64544;BME280;50936;51.660;5.616;2023-02-22T14:19:10;100742.31;;;10.48;100.00
64544;BME280;50936;51.660;5.616;2023-02-22T14:22:13;100743.38;;;10.45;100.00
64544;BME280;50936;51.660;5.616;2023-02-22T14:24:52;100742.72;;;10.42;100.00
64544;BME280;50936;51.660;5.616;2023-02-22T14:27:19;100738.41;;;10.39;100.00
64544;BME280;50936;51.660;5.616;2023-02-22T14:29:52;100739.63;;;10.35;100.00
64544;BME280;50936;51.660;5.616;2023-02-22T14:32:33;100742.53;;;10.32;100.00
64544;BME280;50936;51.660;5.616;2023-02-22T14:35:19;100741.84;;;10.28;100.00
64544;BME280;50936;51.660;5.616;2023-02-22T14:37:59;100745.50;;;10.27;100.00
64544;BME280;50936;51.660;5.616;2023-02-22T14:40:30;100745.50;;;10.27;100.00
64544;BME280;50936;51.660;5.616;2023-02-22T14:43:06;100746.69;;;10.23;100.00
64544;BME280;50936;51.660;5.616;2023-02-22T14:45:57;100755.22;;;10.17;100.00
64544;BME280;50936;51.660;5.616;2023-02-22T14:48:38;100748.41;;;10.11;100.00
64544;BME280;50936;51.660;5.616;2023-02-22T14:51:19;100753.16;;;10.08;100.00
64544;BME280;50936;51.660;5.616;2023-02-22T14:53:55;100749.69;;;10.06;100.00
64544;BME280;50936;51.660;5.616;2023-02-22T14:56:54;100752.41;;;10.06;100.00
64544;BME280;50936;51.660;5.616;2023-02-22T14:59:47;100755.84;;;10.08;100.00
64544;BME280;50936;51.660;5.616;2023-02-22T15:02:23;100750.22;;;10.11;100.00
64544;BME280;50936;51.660;5.616;2023-02-22T15:04:53;100740.19;;;10.13;100.00
64544;BME280;50936;51.660;5.616;2023-02-22T15:07:29;100747.22;;;10.15;100.00
64544;BME280;50936;51.660;5.616;2023-02-22T15:10:18;100745.94;;;10.21;100.00
64544;BME280;50936;51.660;5.616;2023-02-22T15:12:54;100762.69;;;10.26;100.00
64544;BME280;50936;51.660;5.616;2023-02-22T15:15:39;100751.78;;;10.28;100.00
64544;BME280;50936;51.660;5.616;2023-02-22T15:18:18;100759.75;;;10.29;100.00
64544;BME280;50936;51.660;5.616;2023-02-22T15:20:51;100758.63;;;10.33;100.00
64544;BME280;50936;51.660;5.616;2023-02-22T15:23:27;100759.38;;;10.35;100.00
64544;BME280;50936;51.660;5.616;2023-02-22T15:26:04;100758.19;;;10.39;100.00
64544;BME280;50936;51.660;5.616;2023-02-22T15:28:31;100760.88;;;10.39;100.00
64544;BME280;50936;51.660;5.616;2023-02-22T15:31:23;100757.97;;;10.43;100.00
64544;BME280;50936;51.660;5.616;2023-02-22T15:36:41;100764.56;;;10.51;100.00
64544;BME280;50936;51.660;5.616;2023-02-22T15:39:28;100757.41;;;10.50;100.00